Time;durP1;ratioP1;P1;durP2;ratioP2;P2;SDS_P1;SDS_P2;PMS_P1;PMS_P2;Temp;Humidity;BMP_temperature;BMP_pressure;BME280_temperature;BME280_humidity;BME280_pressure;Samples;Min_cycle;Max_cycle;Signal;HPM_P1;HPM_P2
2022/12/01 00:00:12;;;;;;;;;;;;;;;4.68;100.00;102596.44;5014224;28;19925;-62
2022/12/01 00:02:38;;;;;;;;;;;;;;;4.63;100.00;102588.06;5028275;28;19921;-61
2022/12/01 00:05:03;;;;;;;;;;;;;;;4.65;100.00;102598.78;5014075;28;19918;-61
2022/12/01 00:07:28;;;;;;;;;;;;;;;4.65;100.00;102590.56;5013797;28;20390;-61
2022/12/01 00:12:42;;;;;;;;;;;;;;;4.63;100.00;102589.97;5013786;28;19959;-61
2022/12/01 00:15:07;;;;;;;;;;;;;;;4.61;100.00;102592.94;5013675;28;19967;-62
2022/12/01 00:17:32;;;;;;;;;;;;;;;4.75;100.00;102588.16;5013654;28;19913;-62
2022/12/01 00:19:58;;;;;;;;;;;;;;;4.64;100.00;102587.00;5013495;28;19988;-62
2022/12/01 00:22:23;;;;;;;;;;;;;;;4.61;100.00;102592.09;5010860;28;19913;-61
2022/12/01 00:24:48;;;;;;;;;;;;;;;4.57;100.00;102583.47;5013627;28;19921;-62
2022/12/01 00:27:13;;;;;;;;;;;;;;;4.60;100.00;102583.03;5013710;28;19983;-61
2022/12/01 00:29:38;;;;;;;;;;;;;;;4.65;100.00;102593.31;5013349;28;20408;-60
2022/12/01 00:32:04;;;;;;;;;;;;;;;4.67;100.00;102592.06;5013587;28;19968;-62
2022/12/01 00:34:29;;;;;;;;;;;;;;;4.62;100.00;102582.81;5013510;28;20380;-62
2022/12/01 00:36:54;;;;;;;;;;;;;;;4.64;100.00;102588.88;5013710;28;19913;-61
2022/12/01 00:39:19;;;;;;;;;;;;;;;4.61;100.00;102581.97;5013797;28;19921;-61
2022/12/01 00:41:45;;;;;;;;;;;;;;;4.58;100.00;102587.06;5013819;28;19917;-61
2022/12/01 00:44:10;;;;;;;;;;;;;;;4.71;100.00;102586.09;5013191;28;20284;-61
2022/12/01 00:46:35;;;;;;;;;;;;;;;4.66;100.00;102582.16;5012863;28;19917;-60
2022/12/01 00:49:00;;;;;;;;;;;;;;;4.61;100.00;102589.34;5013062;28;20391;-61
2022/12/01 00:51:26;;;;;;;;;;;;;;;4.49;100.00;102583.72;5011743;28;20262;-61
2022/12/01 00:53:51;;;;;;;;;;;;;;;4.49;100.00;102589.22;5013044;28;19917;-61
2022/12/01 00:56:16;;;;;;;;;;;;;;;4.51;100.00;102595.31;5012991;28;19917;-61
2022/12/01 00:58:41;;;;;;;;;;;;;;;4.50;100.00;102586.28;5012877;28;19918;-62
2022/12/01 01:01:07;;;;;;;;;;;;;;;4.50;100.00;102582.69;5012956;28;19924;-61
2022/12/01 01:03:32;;;;;;;;;;;;;;;4.48;100.00;102585.66;5012923;28;19917;-62
2022/12/01 01:06:08;;;;;;;;;;;;;;;4.48;100.00;102584.81;5012495;28;19924;-62
2022/12/01 01:08:34;;;;;;;;;;;;;;;4.52;100.00;102588.78;5012297;28;19920;-62
2022/12/01 01:11:00;;;;;;;;;;;;;;;4.51;100.00;102590.69;5012428;28;19913;-62
2022/12/01 01:13:26;;;;;;;;;;;;;;;4.55;100.00;102595.72;5012306;28;19913;-62
2022/12/01 01:16:21;;;;;;;;;;;;;;;4.50;100.00;102591.75;5010471;28;19992;-63
2022/12/01 01:18:46;;;;;;;;;;;;;;;4.56;100.00;102595.50;5003431;28;20298;-62
2022/12/01 01:21:13;;;;;;;;;;;;;;;4.53;100.00;102598.69;5012576;28;20000;-62
2022/12/01 01:23:38;;;;;;;;;;;;;;;4.51;100.00;102596.19;5012382;28;19924;-62
2022/12/01 01:26:08;;;;;;;;;;;;;;;4.54;100.00;102605.84;5011979;28;19917;-62
2022/12/01 01:28:33;;;;;;;;;;;;;;;4.56;100.00;102603.72;5011559;28;19917;-61
2022/12/01 01:30:58;;;;;;;;;;;;;;;4.64;100.00;102608.09;5012076;28;20004;-61
2022/12/01 01:33:24;;;;;;;;;;;;;;;4.59;100.00;102605.19;5010282;28;20348;-62
2022/12/01 01:35:49;;;;;;;;;;;;;;;4.54;100.00;102611.34;5011855;28;19913;-62
2022/12/01 01:38:14;;;;;;;;;;;;;;;4.60;100.00;102615.91;5011448;28;19927;-62
2022/12/01 01:40:43;;;;;;;;;;;;;;;4.57;100.00;102627.34;5011667;28;19913;-63
2022/12/01 01:43:13;;;;;;;;;;;;;;;4.59;100.00;102627.94;5011271;28;20471;-62
2022/12/01 01:45:38;;;;;;;;;;;;;;;4.60;100.00;102618.66;5011487;28;20603;-62
2022/12/01 01:48:04;;;;;;;;;;;;;;;4.58;100.00;102618.03;5009983;28;19956;-62
2022/12/01 01:50:29;;;;;;;;;;;;;;;4.58;100.00;102619.94;5009848;28;19996;-62
2022/12/01 01:52:58;;;;;;;;;;;;;;;4.56;100.00;102620.19;5010705;28;19939;-62
2022/12/01 01:55:23;;;;;;;;;;;;;;;4.56;100.00;102614.69;5011894;28;20424;-63
2022/12/01 01:57:48;;;;;;;;;;;;;;;4.56;100.00;102620.19;5011979;28;20048;-60
2022/12/01 02:00:15;;;;;;;;;;;;;;;4.63;100.00;102617.41;5011884;28;19936;-63
2022/12/01 02:02:44;;;;;;;;;;;;;;;4.53;100.00;102617.88;5011879;28;19924;-63
2022/12/01 02:05:21;;;;;;;;;;;;;;;4.52;100.00;102614.31;5011926;28;19923;-65
2022/12/01 02:07:47;;;;;;;;;;;;;;;4.49;100.00;102616.63;5012358;28;19947;-62
2022/12/01 02:10:13;;;;;;;;;;;;;;;4.53;100.00;102615.97;5011998;28;20000;-62
2022/12/01 02:12:48;;;;;;;;;;;;;;;4.55;100.00;102615.75;5011932;28;20019;-63
2022/12/01 02:15:40;;;;;;;;;;;;;;;4.56;100.00;102616.56;5012029;28;20055;-62
2022/12/01 02:18:14;;;;;;;;;;;;;;;4.54;100.00;102625.03;5009806;28;19914;-62
2022/12/01 02:20:51;;;;;;;;;;;;;;;4.50;100.00;102610.09;5011629;28;19914;-63
2022/12/01 02:23:35;;;;;;;;;;;;;;;4.45;100.00;102613.50;5008288;28;19955;-63
2022/12/01 02:26:19;;;;;;;;;;;;;;;4.43;100.00;102621.13;5014386;28;20011;-62
2022/12/01 02:28:52;;;;;;;;;;;;;;;4.46;100.00;102615.16;5015381;28;19921;-61
2022/12/01 02:31:30;;;;;;;;;;;;;;;4.45;100.00;102613.50;5015503;28;19947;-62
2022/12/01 02:34:05;;;;;;;;;;;;;;;4.52;100.00;102624.41;5015784;28;19963;-61
2022/12/01 02:36:30;;;;;;;;;;;;;;;4.53;100.00;102620.59;5015585;28;19914;-62
2022/12/01 02:39:03;;;;;;;;;;;;;;;4.53;100.00;102626.09;5015684;28;19917;-62
2022/12/01 02:41:40;;;;;;;;;;;;;;;4.53;100.00;102615.97;5016175;28;19920;-63
2022/12/01 02:44:18;;;;;;;;;;;;;;;4.49;100.00;102619.34;5014373;28;19924;-62
2022/12/01 02:46:45;;;;;;;;;;;;;;;4.50;100.00;102616.41;5015575;28;19913;-62
2022/12/01 02:49:16;;;;;;;;;;;;;;;4.53;100.00;102617.88;5015659;28;19913;-62
2022/12/01 02:51:45;;;;;;;;;;;;;;;4.52;100.00;102613.44;5015524;28;20324;-62
2022/12/01 02:54:12;;;;;;;;;;;;;;;4.51;100.00;102626.31;5015371;28;19920;-61
2022/12/01 02:56:37;;;;;;;;;;;;;;;4.53;100.00;102618.69;5014885;28;19935;-59
2022/12/01 02:59:09;;;;;;;;;;;;;;;4.57;100.00;102621.00;5014914;28;20344;-62
2022/12/01 03:01:53;;;;;;;;;;;;;;;4.51;100.00;102623.59;5015006;28;19917;-62
2022/12/01 03:04:33;;;;;;;;;;;;;;;4.55;100.00;102620.38;5014859;28;20004;-62
2022/12/01 03:07:11;;;;;;;;;;;;;;;4.53;100.00;102623.34;5014623;28;19913;-62
2022/12/01 03:09:36;;;;;;;;;;;;;;;4.55;100.00;102623.13;5015146;28;20011;-61
2022/12/01 03:12:14;;;;;;;;;;;;;;;4.54;100.00;102622.28;5015077;28;19957;-60
2022/12/01 03:14:44;;;;;;;;;;;;;;;4.51;100.00;102625.47;5014910;28;19950;-62
2022/12/01 03:17:13;;;;;;;;;;;;;;;4.54;100.00;102627.78;5014746;28;19913;-62
2022/12/01 03:19:38;;;;;;;;;;;;;;;4.52;100.00;102629.91;5014513;28;20024;-61
2022/12/01 03:22:07;;;;;;;;;;;;;;;4.53;100.00;102626.09;5013485;28;19913;-62
2022/12/01 03:24:33;;;;;;;;;;;;;;;4.58;100.00;102622.69;5013219;28;19935;-61
2022/12/01 03:27:01;;;;;;;;;;;;;;;4.53;100.00;102618.69;4996745;28;19924;-62
2022/12/01 03:29:46;;;;;;;;;;;;;;;4.50;100.00;102616.41;5014234;28;19925;-62
2022/12/01 03:32:14;;;;;;;;;;;;;;;4.53;100.00;102618.69;5012168;28;20292;-62
2022/12/01 03:34:43;;;;;;;;;;;;;;;4.54;100.00;102622.28;5014047;28;19932;-62
2022/12/01 03:37:20;;;;;;;;;;;;;;;4.50;100.00;102619.16;5012819;28;19917;-62
2022/12/01 03:39:46;;;;;;;;;;;;;;;4.51;100.00;102614.50;5013946;28;19913;-61
2022/12/01 03:42:16;;;;;;;;;;;;;;;4.54;100.00;102616.81;5013703;28;19920;-60
2022/12/01 03:44:48;;;;;;;;;;;;;;;4.51;100.00;102615.38;5014075;28;19922;-61
2022/12/01 03:47:15;;;;;;;;;;;;;;;4.56;100.00;102616.56;5014216;28;19989;-61
2022/12/01 03:49:41;;;;;;;;;;;;;;;4.55;100.00;102612.16;5014108;28;20004;-61
2022/12/01 03:52:14;;;;;;;;;;;;;;;4.52;100.00;102611.56;5013627;28;20321;-61
2022/12/01 03:54:39;;;;;;;;;;;;;;;4.57;100.00;102618.25;5014009;28;19968;-61
2022/12/01 03:57:09;;;;;;;;;;;;;;;4.55;100.00;102617.63;5014228;28;20013;-61
2022/12/01 03:59:35;;;;;;;;;;;;;;;4.51;100.00;102623.59;5013833;28;19913;-61
2022/12/01 04:02:01;;;;;;;;;;;;;;;4.52;100.00;102624.41;5014179;28;19914;-61
2022/12/01 04:04:26;;;;;;;;;;;;;;;4.49;100.00;102624.84;5013937;28;19925;-61
2022/12/01 04:06:51;;;;;;;;;;;;;;;4.47;100.00;102625.06;5014085;28;19913;-61
2022/12/01 04:09:17;;;;;;;;;;;;;;;4.46;100.00;102622.56;5013946;28;19913;-61
2022/12/01 04:14:26;;;;;;;;;;;;;;;4.45;100.00;102623.63;5014050;28;20330;-61
2022/12/01 04:16:51;;;;;;;;;;;;;;;4.43;100.00;102628.47;5013733;28;20365;-60
2022/12/01 04:19:16;;;;;;;;;;;;;;;4.52;100.00;102627.16;5013746;28;19996;-61
2022/12/01 04:21:41;;;;;;;;;;;;;;;4.44;100.00;102631.00;5012413;28;20289;-63
2022/12/01 04:24:07;;;;;;;;;;;;;;;4.41;100.00;102631.44;5011894;28;19929;-61
2022/12/01 04:26:34;;;;;;;;;;;;;;;4.42;100.00;102637.75;5013237;28;20297;-61
2022/12/01 04:29:00;;;;;;;;;;;;;;;4.42;100.00;102638.63;5012940;28;20372;-61
2022/12/01 04:31:25;;;;;;;;;;;;;;;4.43;100.00;102632.06;5011728;28;19917;-63
2022/12/01 04:33:52;;;;;;;;;;;;;;;4.45;100.00;102634.59;5013099;28;20380;-60
2022/12/01 04:36:17;;;;;;;;;;;;;;;4.46;100.00;102617.91;5013208;28;19993;-60
2022/12/01 04:38:43;;;;;;;;;;;;;;;4.49;100.00;102633.06;5028233;28;19936;-60
2022/12/01 04:41:09;;;;;;;;;;;;;;;4.48;100.00;102623.19;5013382;28;20289;-61
2022/12/01 04:43:34;;;;;;;;;;;;;;;4.43;100.00;102615.63;5013422;28;20012;-61
2022/12/01 04:45:59;;;;;;;;;;;;;;;4.53;100.00;102626.09;5013263;28;20000;-62
2022/12/01 04:48:24;;;;;;;;;;;;;;;4.55;100.00;102617.63;5012950;28;19914;-62
2022/12/01 04:50:50;;;;;;;;;;;;;;;4.55;100.00;102626.72;5013040;28;19920;-62
2022/12/01 04:53:15;;;;;;;;;;;;;;;4.55;100.00;102628.59;5012961;28;19913;-61
2022/12/01 04:55:40;;;;;;;;;;;;;;;4.48;100.00;102624.00;5013050;28;19913;-61
2022/12/01 04:58:05;;;;;;;;;;;;;;;4.48;100.00;102621.28;5013316;28;19917;-61
2022/12/01 05:00:31;;;;;;;;;;;;;;;4.45;100.00;102627.19;5013607;28;19913;-61
2022/12/01 05:02:57;;;;;;;;;;;;;;;4.45;100.00;102610.75;5013439;28;19924;-61
2022/12/01 05:05:22;;;;;;;;;;;;;;;4.44;100.00;102627.41;5013172;28;20007;-62
2022/12/01 05:07:47;;;;;;;;;;;;;;;4.45;100.00;102623.63;5012989;28;20292;-61
2022/12/01 05:10:13;;;;;;;;;;;;;;;4.45;100.00;102621.72;5011924;28;19913;-62
2022/12/01 05:12:40;;;;;;;;;;;;;;;4.45;100.00;102626.38;5012867;28;19924;-62
2022/12/01 05:15:05;;;;;;;;;;;;;;;4.47;100.00;102624.25;5012579;28;19953;-62
2022/12/01 05:17:30;;;;;;;;;;;;;;;4.50;100.00;102621.91;5011405;28;20431;-62
2022/12/01 05:22:39;;;;;;;;;;;;;;;4.45;100.00;102631.84;5010987;28;19967;-63
2022/12/01 05:25:05;;;;;;;;;;;;;;;4.44;100.00;102631.00;5011010;28;19918;-62
2022/12/01 05:27:30;;;;;;;;;;;;;;;4.46;100.00;102633.53;5012814;28;19933;-62
2022/12/01 05:29:55;;;;;;;;;;;;;;;4.44;100.00;102639.22;5013095;28;20008;-62
2022/12/01 05:32:20;;;;;;;;;;;;;;;4.43;100.00;102637.56;5012859;28;20000;-62
2022/12/01 05:34:45;;;;;;;;;;;;;;;4.41;100.00;102636.94;5012838;28;19917;-62
2022/12/01 05:37:11;;;;;;;;;;;;;;;4.37;100.00;102646.63;5012688;28;19960;-62
2022/12/01 05:39:36;;;;;;;;;;;;;;;4.39;100.00;102644.53;5012577;28;19924;-62
2022/12/01 05:42:01;;;;;;;;;;;;;;;4.36;100.00;102648.56;5012880;28;19913;-63
2022/12/01 05:44:26;;;;;;;;;;;;;;;4.38;100.00;102640.09;5012519;28;19914;-62
2022/12/01 05:46:51;;;;;;;;;;;;;;;4.37;100.00;102644.75;5012726;28;19913;-62
2022/12/01 05:49:17;;;;;;;;;;;;;;;4.32;100.00;102641.81;5012904;28;19913;-61
2022/12/01 05:51:42;;;;;;;;;;;;;;;4.31;100.00;102637.41;5013184;28;19913;-60
2022/12/01 05:54:08;;;;;;;;;;;;;;;4.31;100.00;102639.31;5012958;28;19984;-61
2022/12/01 05:56:33;;;;;;;;;;;;;;;4.29;100.00;102647.75;5012889;28;19920;-61
2022/12/01 05:58:58;;;;;;;;;;;;;;;4.29;100.00;102645.00;5012621;28;19936;-62
2022/12/01 06:01:23;;;;;;;;;;;;;;;4.30;100.00;102645.84;5015764;28;19919;-61
2022/12/01 06:03:48;;;;;;;;;;;;;;;4.32;100.00;102647.31;5017054;28;19960;-62
2022/12/01 06:06:14;;;;;;;;;;;;;;;4.35;100.00;102641.38;5017155;28;19913;-61
2022/12/01 06:08:39;;;;;;;;;;;;;;;4.38;100.00;102653.81;5016190;28;20359;-61
2022/12/01 06:11:04;;;;;;;;;;;;;;;4.39;100.00;102650.00;5016467;28;19985;-61
2022/12/01 06:13:30;;;;;;;;;;;;;;;4.34;100.00;102649.84;5016379;28;19914;-62
2022/12/01 06:15:58;;;;;;;;;;;;;;;4.34;100.00;102650.66;5016144;28;19967;-62
2022/12/01 06:18:31;;;;;;;;;;;;;;;4.39;100.00;102651.91;5016620;28;19921;-61
2022/12/01 06:20:56;;;;;;;;;;;;;;;4.37;100.00;102655.72;5013925;28;19917;-60
2022/12/01 06:23:22;;;;;;;;;;;;;;;4.36;100.00;102647.69;5016161;28;19967;-61
2022/12/01 06:25:47;;;;;;;;;;;;;;;4.36;100.00;102647.69;5016297;28;19917;-60
2022/12/01 06:28:13;;;;;;;;;;;;;;;4.37;100.00;102649.38;5016263;28;19917;-59
2022/12/01 06:30:38;;;;;;;;;;;;;;;4.47;100.00;102652.47;5016019;28;20365;-62
2022/12/01 06:33:04;;;;;;;;;;;;;;;4.41;100.00;102647.88;5030789;28;19920;-62
2022/12/01 06:35:29;;;;;;;;;;;;;;;4.38;100.00;102651.06;5015633;28;19920;-62
2022/12/01 06:37:54;;;;;;;;;;;;;;;4.37;100.00;102655.72;5015586;28;19936;-62
2022/12/01 06:40:20;;;;;;;;;;;;;;;4.34;100.00;102656.16;5013314;28;19914;-62
2022/12/01 06:42:45;;;;;;;;;;;;;;;4.35;100.00;102652.34;5014771;28;19920;-62
2022/12/01 06:45:10;;;;;;;;;;;;;;;4.35;100.00;102655.09;5014740;28;20285;-62
2022/12/01 06:47:36;;;;;;;;;;;;;;;4.37;100.00;102655.72;5014817;28;19917;-61
2022/12/01 06:50:01;;;;;;;;;;;;;;;4.39;100.00;102655.50;5014496;28;20012;-61
2022/12/01 06:52:27;;;;;;;;;;;;;;;4.38;100.00;102662.03;5014417;28;20288;-61
2022/12/01 06:54:52;;;;;;;;;;;;;;;4.39;100.00;102658.22;5014599;28;19917;-61
2022/12/01 06:57:17;;;;;;;;;;;;;;;4.33;100.00;102661.84;5013314;28;19986;-63
2022/12/01 06:59:42;;;;;;;;;;;;;;;4.34;100.00;102669.03;5014602;28;19926;-61
2022/12/01 07:02:09;;;;;;;;;;;;;;;4.34;100.00;102671.75;5014464;28;19924;-61
2022/12/01 07:04:34;;;;;;;;;;;;;;;4.38;100.00;102678.47;5014455;28;19993;-61
2022/12/01 07:06:59;;;;;;;;;;;;;;;4.46;100.00;102680.13;5014094;28;19920;-60
2022/12/01 07:09:24;;;;;;;;;;;;;;;4.43;100.00;102680.56;5014375;28;19922;-62
2022/12/01 07:11:50;;;;;;;;;;;;;;;4.45;100.00;102686.66;5014635;28;19917;-61
2022/12/01 07:14:19;;;;;;;;;;;;;;;4.47;100.00;102685.38;5014726;28;20373;-60
2022/12/01 07:16:44;;;;;;;;;;;;;;;4.50;100.00;102681.34;5015340;28;20027;-61
2022/12/01 07:19:09;;;;;;;;;;;;;;;4.43;100.00;102683.28;5013815;28;19999;-60
2022/12/01 07:21:34;;;;;;;;;;;;;;;4.41;100.00;102683.53;5014697;28;19940;-62
2022/12/01 07:24:00;;;;;;;;;;;;;;;4.48;100.00;102700.75;5014703;28;20264;-61
2022/12/01 07:26:25;;;;;;;;;;;;;;;4.45;100.00;102689.41;5014658;28;19921;-62
2022/12/01 07:28:51;;;;;;;;;;;;;;;4.42;100.00;102695.31;5012849;28;20765;-61
2022/12/01 07:31:17;;;;;;;;;;;;;;;4.42;100.00;102690.69;5013575;28;19921;-61
2022/12/01 07:33:42;;;;;;;;;;;;;;;4.41;100.00;102693.63;5012368;28;19920;-62
2022/12/01 07:36:08;;;;;;;;;;;;;;;4.39;100.00;102702.06;5013852;28;19914;-62
2022/12/01 07:38:34;;;;;;;;;;;;;;;4.39;100.00;102698.50;5014493;28;19913;-61
2022/12/01 07:41:02;;;;;;;;;;;;;;;4.45;100.00;102692.13;5014385;28;19913;-61
2022/12/01 07:43:28;;;;;;;;;;;;;;;4.40;100.00;102695.53;5014547;28;20003;-61
2022/12/01 07:45:53;;;;;;;;;;;;;;;4.36;100.00;102697.88;5013478;28;20421;-61
2022/12/01 07:48:18;;;;;;;;;;;;;;;4.36;100.00;102702.50;5013263;28;19913;-62
2022/12/01 07:50:44;;;;;;;;;;;;;;;4.32;100.00;102704.00;5014579;28;20377;-60
2022/12/01 07:53:09;;;;;;;;;;;;;;;4.35;100.00;102703.56;5013157;28;19924;-60
2022/12/01 07:55:34;;;;;;;;;;;;;;;4.35;100.00;102703.56;5014345;28;20430;-60
2022/12/01 07:57:59;;;;;;;;;;;;;;;4.34;100.00;102704.66;5014519;28;19939;-60
2022/12/01 08:00:25;;;;;;;;;;;;;;;4.38;100.00;102700.38;5014369;28;20030;-61
2022/12/01 08:02:50;;;;;;;;;;;;;;;4.39;100.00;102704.81;5013200;28;20284;-61
2022/12/01 08:05:15;;;;;;;;;;;;;;;4.42;100.00;102709.88;5014255;28;19913;-61
2022/12/01 08:07:40;;;;;;;;;;;;;;;4.44;100.00;102712.38;5013005;28;19920;-61
2022/12/01 08:10:06;;;;;;;;;;;;;;;4.47;100.00;102711.94;5014112;28;19913;-61
2022/12/01 08:12:31;;;;;;;;;;;;;;;4.50;100.00;102716.97;5014188;28;20377;-62
2022/12/01 08:14:56;;;;;;;;;;;;;;;4.55;100.00;102722.66;5014287;28;19939;-61
2022/12/01 08:17:21;;;;;;;;;;;;;;;4.52;100.00;102718.47;5014323;28;19914;-61
2022/12/01 08:19:46;;;;;;;;;;;;;;;4.55;100.00;102721.81;5014191;28;19917;-62
2022/12/01 08:22:12;;;;;;;;;;;;;;;4.53;100.00;102722.03;5013668;28;19968;-61
2022/12/01 08:24:37;;;;;;;;;;;;;;;4.51;100.00;102716.78;5012602;28;20327;-61
2022/12/01 08:27:02;;;;;;;;;;;;;;;4.51;100.00;102722.25;5012404;28;19914;-60
2022/12/01 08:29:28;;;;;;;;;;;;;;;4.57;100.00;102730.66;5002870;28;20657;-61
2022/12/01 08:31:55;;;;;;;;;;;;;;;4.53;100.00;102725.59;5010313;28;19913;-60
2022/12/01 08:34:21;;;;;;;;;;;;;;;4.57;100.00;102716.94;5012957;28;19952;-62
2022/12/01 08:36:46;;;;;;;;;;;;;;;4.58;100.00;102724.13;5013180;28;19979;-60
2022/12/01 08:39:12;;;;;;;;;;;;;;;4.54;100.00;102723.72;5013138;28;19948;-61
2022/12/01 08:41:38;;;;;;;;;;;;;;;4.61;100.00;102723.69;5013072;28;19913;-62
2022/12/01 08:44:03;;;;;;;;;;;;;;;4.61;100.00;102732.72;5012537;28;19924;-61
2022/12/01 08:46:34;;;;;;;;;;;;;;;4.60;100.00;102731.06;5012902;28;19957;-60
2022/12/01 08:48:59;;;;;;;;;;;;;;;4.60;100.00;102728.31;5012516;28;19914;-60
2022/12/01 08:51:25;;;;;;;;;;;;;;;4.62;100.00;102730.84;5012790;28;19924;-61
2022/12/01 08:53:50;;;;;;;;;;;;;;;4.67;100.00;102731.03;5012469;28;20385;-61
2022/12/01 08:56:20;;;;;;;;;;;;;;;4.68;100.00;102722.56;5012504;28;19925;-60
2022/12/01 08:58:45;;;;;;;;;;;;;;;4.84;100.00;102732.16;5012169;28;19960;-61
2022/12/01 09:01:12;;;;;;;;;;;;;;;4.84;100.00;102736.81;5012062;28;19952;-61
2022/12/01 09:03:38;;;;;;;;;;;;;;;4.92;100.00;102730.22;5011988;28;19921;-61
2022/12/01 09:06:05;;;;;;;;;;;;;;;4.90;100.00;102735.09;5010931;28;19917;-61
2022/12/01 09:08:30;;;;;;;;;;;;;;;4.90;100.00;102733.19;5011806;28;19941;-61
2022/12/01 09:10:56;;;;;;;;;;;;;;;4.94;100.00;102739.06;5012124;28;20073;-60
2022/12/01 09:13:22;;;;;;;;;;;;;;;5.02;100.00;102729.75;5012208;28;20032;-60
2022/12/01 09:15:58;;;;;;;;;;;;;;;4.98;100.00;102734.84;5011899;28;19941;-60
2022/12/01 09:18:23;;;;;;;;;;;;;;;4.92;100.00;102735.72;5012167;28;19928;-61
2022/12/01 09:20:48;;;;;;;;;;;;;;;4.96;100.00;102736.94;5011914;28;20004;-60
2022/12/01 09:23:13;;;;;;;;;;;;;;;4.94;100.00;102739.94;5010562;28;20050;-60
2022/12/01 09:25:39;;;;;;;;;;;;;;;4.97;100.00;102741.38;5011444;28;19917;-61
2022/12/01 09:28:04;;;;;;;;;;;;;;;4.91;100.00;102745.03;5009317;28;19921;-61
2022/12/01 09:30:29;;;;;;;;;;;;;;;4.88;100.00;102742.72;5011786;28;19926;-61
2022/12/01 09:32:54;;;;;;;;;;;;;;;4.83;100.00;102743.38;5011762;28;19979;-62
2022/12/01 09:35:19;;;;;;;;;;;;;;;4.81;100.00;102740.88;5011367;28;19921;-61
2022/12/01 09:37:45;;;;;;;;;;;;;;;4.80;100.00;102746.53;5011094;28;19918;-61
2022/12/01 09:40:12;;;;;;;;;;;;;;;4.92;100.00;102752.16;5010150;28;19917;-60
2022/12/01 09:42:39;;;;;;;;;;;;;;;4.88;100.00;102745.44;5011243;28;19927;-58
2022/12/01 09:45:05;;;;;;;;;;;;;;;4.95;100.00;102740.75;5011686;28;20098;-59
2022/12/01 09:47:33;;;;;;;;;;;;;;;5.09;100.00;102747.00;5011281;28;19924;-59
2022/12/01 09:50:12;;;;;;;;;;;;;;;5.17;100.00;102740.41;5011360;28;20704;-62
2022/12/01 09:52:58;;;;;;;;;;;;;;;5.30;100.00;102741.13;5010972;28;19922;-61
2022/12/01 09:55:24;;;;;;;;;;;;;;;5.38;100.00;102741.91;5011212;28;19939;-60
2022/12/01 09:57:51;;;;;;;;;;;;;;;5.54;100.00;102737.75;5011655;28;19918;-60
2022/12/01 10:00:22;;;;;;;;;;;;;;;5.57;100.00;102731.84;5011264;28;19917;-59
2022/12/01 10:02:53;;;;;;;;;;;;;;;5.53;100.00;102733.34;5011474;28;19917;-61
2022/12/01 10:05:20;;;;;;;;;;;;;;;5.43;100.00;102729.19;5011146;28;20380;-60
2022/12/01 10:07:58;;;;;;;;;;;;;;;5.32;100.00;102732.66;5011789;28;20026;-59
2022/12/01 10:10:23;;;;;;;;;;;;;;;5.26;100.00;102722.59;5011794;28;20265;-62
2022/12/01 10:12:48;;;;;;;;;;;;;;;5.23;100.00;102726.63;5011542;28;20432;-60
2022/12/01 10:15:22;;;;;;;;;;;;;;;5.28;100.00;102723.22;5011106;28;20401;-60
2022/12/01 10:17:57;;;;;;;;;;;;;;;5.34;100.00;102727.81;5010804;28;19921;-60
2022/12/01 10:20:30;;;;;;;;;;;;;;;5.34;100.00;102714.06;5010949;28;20395;-60
2022/12/01 10:23:01;;;;;;;;;;;;;;;5.42;100.00;102721.19;5012147;28;19923;-60
2022/12/01 10:25:29;;;;;;;;;;;;;;;5.46;100.00;102720.53;5010386;28;19918;-59
2022/12/01 10:28:03;;;;;;;;;;;;;;;5.44;100.00;102714.41;5008417;28;20431;-60
2022/12/01 10:30:28;;;;;;;;;;;;;;;5.46;100.00;102711.44;5009751;28;20331;-60
2022/12/01 10:32:55;;;;;;;;;;;;;;;5.52;100.00;102707.81;5010464;28;19913;-61
2022/12/01 10:35:21;;;;;;;;;;;;;;;5.59;100.00;102713.19;5009407;28;20377;-60
2022/12/01 10:37:48;;;;;;;;;;;;;;;5.65;100.00;102706.81;5009888;28;20019;-60
2022/12/01 10:40:15;;;;;;;;;;;;;;;5.67;100.00;102699.16;5008214;28;19917;-61
2022/12/01 10:42:45;;;;;;;;;;;;;;;5.72;100.00;102698.50;5008361;28;20100;-60
2022/12/01 10:45:13;;;;;;;;;;;;;;;5.81;100.00;102696.28;5009908;28;20372;-60
2022/12/01 10:47:58;;;;;;;;;;;;;;;5.91;100.00;102702.09;5013341;28;20502;-61
2022/12/01 10:50:27;;;;;;;;;;;;;;;6.01;100.00;102696.94;5013642;28;19929;-61
2022/12/01 10:52:52;;;;;;;;;;;;;;;6.10;100.00;102697.44;5013869;28;19970;-61
2022/12/01 10:55:25;;;;;;;;;;;;;;;6.11;100.00;102690.06;5014125;28;19917;-60
2022/12/01 10:57:51;;;;;;;;;;;;;;;6.14;100.00;102686.88;5014805;28;20448;-61
2022/12/01 11:00:21;;;;;;;;;;;;;;;6.20;100.00;102688.69;5013295;28;19936;-61
2022/12/01 11:02:46;;;;;;;;;;;;;;;6.20;100.00;102694.19;5014509;28;19924;-60
2022/12/01 11:05:23;;;;;;;;;;;;;;;6.22;100.00;102686.53;5013429;28;19913;-61
2022/12/01 11:07:49;;;;;;;;;;;;;;;6.22;100.00;102687.38;5014845;28;20024;-60
2022/12/01 11:10:23;;;;;;;;;;;;;;;6.20;100.00;102684.00;5014221;28;20439;-61
2022/12/01 11:12:57;;;;;;;;;;;;;;;6.15;100.00;102681.13;5014532;28;19963;-61
2022/12/01 11:15:28;;;;;;;;;;;;;;;6.24;100.00;102690.72;5014397;28;19956;-60
2022/12/01 11:18:19;;;;;;;;;;;;;;;6.28;100.00;102687.53;5012965;28;19924;-60
2022/12/01 11:20:45;;;;;;;;;;;;;;;6.22;97.81;102689.28;4998306;28;19921;-61
2022/12/01 11:23:25;;;;;;;;;;;;;;;6.21;100.00;102688.44;5013953;28;20291;-60
2022/12/01 11:26:14;;;;;;;;;;;;;;;6.22;99.05;102689.28;5014214;28;20238;-61
2022/12/01 11:28:42;;;;;;;;;;;;;;;6.28;100.00;102682.03;5003867;28;19917;-60
2022/12/01 11:31:09;;;;;;;;;;;;;;;6.30;100.00;102672.47;5011559;28;19957;-60
2022/12/01 11:33:54;;;;;;;;;;;;;;;6.30;100.00;102671.63;5013304;28;19975;-61
2022/12/01 11:36:39;;;;;;;;;;;;;;;6.32;100.00;102670.34;5013567;28;19917;-61
2022/12/01 11:39:04;;;;;;;;;;;;;;;6.40;100.00;102672.75;5006341;28;19917;-61
2022/12/01 11:41:31;;;;;;;;;;;;;;;6.46;100.00;102667.38;5012144;28;20439;-61
2022/12/01 11:43:58;;;;;;;;;;;;;;;6.34;98.30;102670.09;5012275;28;19917;-61
2022/12/01 11:46:32;;;;;;;;;;;;;;;6.32;98.25;102664.84;5013280;28;20381;-59
2022/12/01 11:48:58;;;;;;;;;;;;;;;6.35;96.42;102669.03;5013347;28;20016;-61
2022/12/01 11:51:36;;;;;;;;;;;;;;;6.28;94.41;102665.53;5013312;28;20015;-62
2022/12/01 11:54:06;;;;;;;;;;;;;;;6.12;95.00;102664.28;5013421;28;19948;-62
2022/12/01 11:56:32;;;;;;;;;;;;;;;6.18;94.86;102660.59;5013361;28;19917;-61
2022/12/01 11:59:03;;;;;;;;;;;;;;;6.13;95.71;102655.78;5012199;28;20281;-61
2022/12/01 12:01:31;;;;;;;;;;;;;;;6.09;94.91;102660.91;5013339;28;19921;-60
2022/12/01 12:04:01;;;;;;;;;;;;;;;6.06;95.23;102655.88;5013226;28;19917;-61
2022/12/01 12:06:39;;;;;;;;;;;;;;;6.09;97.30;102654.59;5010332;28;20009;-60
2022/12/01 12:09:11;;;;;;;;;;;;;;;6.19;98.17;102648.53;5013414;28;20357;-62
2022/12/01 12:11:57;;;;;;;;;;;;;;;6.23;97.89;102650.56;5013322;28;20020;-63
2022/12/01 12:14:45;;;;;;;;;;;;;;;6.23;97.48;102649.75;5013242;28;19920;-59
2022/12/01 12:17:13;;;;;;;;;;;;;;;6.23;97.42;102658.00;5013184;28;19955;-60
2022/12/01 12:19:39;;;;;;;;;;;;;;;6.15;95.73;102648.16;5014036;28;19917;-61
2022/12/01 12:22:16;;;;;;;;;;;;;;;6.03;95.55;102647.25;5001611;28;20383;-60
2022/12/01 12:24:56;;;;;;;;;;;;;;;6.16;96.82;102647.09;4992949;28;20393;-60
2022/12/01 12:27:38;;;;;;;;;;;;;;;6.08;96.09;102652.91;4992558;28;20293;-59
2022/12/01 12:30:03;;;;;;;;;;;;;;;6.02;95.98;102645.56;4993636;28;20005;-60
2022/12/01 12:32:31;;;;;;;;;;;;;;;6.00;96.34;102643.06;4993456;28;20011;-61
2022/12/01 12:35:12;;;;;;;;;;;;;;;6.04;97.22;102647.03;4992897;28;20363;-61
2022/12/01 12:37:52;;;;;;;;;;;;;;;6.04;96.73;102649.78;5006249;28;20373;-60
2022/12/01 12:40:36;;;;;;;;;;;;;;;6.08;97.82;102640.00;5012352;28;19968;-61
2022/12/01 12:43:22;;;;;;;;;;;;;;;6.17;97.84;102636.91;5027450;28;20029;-60
2022/12/01 12:45:47;;;;;;;;;;;;;;;6.11;96.30;102635.09;5012326;28;20083;-59
2022/12/01 12:48:42;;;;;;;;;;;;;;;6.13;96.52;102630.22;5011854;28;19917;-59
2022/12/01 12:51:13;;;;;;;;;;;;;;;6.18;97.92;102622.97;5005835;28;20349;-60